Time;durP1;ratioP1;P1;durP2;ratioP2;P2;SDS_P1;SDS_P2;PMS_P1;PMS_P2;Temp;Humidity;BMP_temperature;BMP_pressure;BME280_temperature;BME280_humidity;BME280_pressure;Samples;Min_cycle;Max_cycle;Signal;HPM_P1;HPM_P2
2021/04/26 00:01:22;;;;;;;10.20;5.43;;;;;;;4.50;81.05;97055.63;5024184;28;20037;-62
2021/04/26 00:03:48;;;;;;;9.90;5.47;;;;;;;4.58;81.30;97074.75;5024778;28;20607;-62
2021/04/26 00:06:13;;;;;;;11.50;5.43;;;;;;;4.99;81.47;97128.13;5024210;28;20045;-62
2021/04/26 00:08:38;;;;;;;10.27;5.97;;;;;;;4.77;81.56;97096.28;5023070;28;20030;-61
2021/04/26 00:11:04;;;;;;;31.23;14.55;;;;;;;4.99;82.01;97139.09;5022380;28;20045;-61
2021/04/26 00:13:29;;;;;;;17.40;7.82;;;;;;;4.99;81.56;97139.91;5005987;28;20041;-62
2021/04/26 00:15:55;;;;;;;14.93;5.35;;;;;;;4.52;81.72;97076.06;5004161;28;20046;-62
2021/04/26 00:18:20;;;;;;;13.65;6.05;;;;;;;4.97;81.73;97138.63;5004728;28;20087;-61
2021/04/26 00:20:46;;;;;;;10.00;5.80;;;;;;;4.98;81.53;97137.50;5019300;28;20497;-61
2021/04/26 00:23:12;;;;;;;12.80;5.63;;;;;;;4.91;81.41;97143.50;5004701;28;20113;-60
2021/04/26 00:25:37;;;;;;;11.80;6.40;;;;;;;0.72;81.85;96515.91;5004433;28;20113;-62
2021/04/26 00:28:03;;;;;;;11.73;6.53;;;;;;;4.96;81.43;97137.84;5004677;28;20054;-61
2021/04/26 00:30:29;;;;;;;11.00;6.30;;;;;;;4.56;80.83;97088.00;5019504;28;20045;-63
2021/04/26 00:32:56;;;;;;;12.32;5.68;;;;;;;4.85;81.86;97133.03;5019242;28;20033;-60
2021/04/26 00:35:22;;;;;;;8.07;4.78;;;;;;;4.74;81.81;97131.81;5003854;28;20045;-61
2021/04/26 00:37:49;;;;;;;9.88;5.32;;;;;;;4.83;81.19;97136.13;5004149;28;20497;-61
2021/04/26 00:40:15;;;;;;;12.57;5.80;;;;;;;4.69;82.02;97136.34;5003849;28;20030;-61
2021/04/26 00:42:41;;;;;;;9.60;5.45;;;;;;;4.14;82.40;97090.94;5004267;28;20030;-61
2021/04/26 00:45:15;;;;;;;12.25;5.15;;;;;;;4.29;82.17;97076.69;5003984;28;20061;-60
2021/04/26 00:47:42;;;;;;;11.73;5.32;;;;;;;3.36;82.83;96955.34;5004529;28;20041;-60
2021/04/26 00:50:11;;;;;;;12.60;6.85;;;;;;;4.64;82.42;97141.22;5018460;28;20054;-61
2021/04/26 00:52:37;;;;;;;8.65;5.22;;;;;;;4.65;81.84;97140.88;5003816;28;20489;-60
2021/04/26 00:55:03;;;;;;;9.00;5.95;;;;;;;4.58;81.65;97145.28;5003993;28;20053;-61
2021/04/26 00:57:28;;;;;;;12.18;6.15;;;;;;;4.23;80.82;97078.81;5002005;28;20409;-62
2021/04/26 00:59:54;;;;;;;12.10;5.90;;;;;;;4.68;82.02;97145.72;5018918;28;20038;-63
2021/04/26 01:02:20;;;;;;;9.98;5.68;;;;;;;4.33;81.04;97102.31;5003673;28;20038;-62
2021/04/26 01:04:45;;;;;;;10.98;6.43;;;;;;;4.46;81.70;97113.06;5019271;28;20072;-61
2021/04/26 01:07:11;;;;;;;11.63;6.15;;;;;;;4.21;82.22;97075.59;5002807;28;20045;-63
2021/04/26 01:09:36;;;;;;;9.27;5.82;;;;;;;4.25;82.25;97081.22;5003782;28;20037;-62
2021/04/26 01:12:23;;;;;;;8.20;4.95;;;;;;;4.64;82.61;97133.81;5024122;28;20037;-61
2021/04/26 01:15:17;;;;;;;15.63;6.20;;;;;;;4.62;82.25;97133.31;5021952;28;20033;-61
2021/04/26 01:17:56;;;;;;;16.42;7.05;;;;;;;4.36;82.80;97116.16;5023466;28;20106;-63
2021/04/26 01:20:46;;;;;;;11.45;5.90;;;;;;;4.41;83.17;97146.16;5023608;28;20169;-63
2021/04/26 01:23:33;;;;;;;11.82;5.72;;;;;;;4.40;83.50;97139.06;5024000;28;20151;-62
2021/04/26 01:26:01;;;;;;;9.88;5.53;;;;;;;4.21;83.02;97108.47;5022927;28;20033;-61
2021/04/26 01:29:06;;;;;;;9.00;5.43;;;;;;;4.42;83.37;97142.28;5021613;28;20056;-62
2021/04/26 01:32:03;;;;;;;12.68;5.75;;;;;;;4.26;84.25;97138.47;5023201;28;20037;-62
2021/04/26 01:34:29;;;;;;;11.55;5.57;;;;;;;4.16;84.51;97144.28;5023182;28;20045;-62
2021/04/26 01:36:56;;;;;;;12.82;5.80;;;;;;;3.59;85.13;97044.34;5021666;28;20489;-62
2021/04/26 01:39:23;;;;;;;13.02;6.13;;;;;;;4.15;85.18;97136.41;5021894;28;20064;-62
2021/04/26 01:41:49;;;;;;;11.38;5.78;;;;;;;3.73;84.63;97047.69;5023285;28;20030;-63
2021/04/26 01:44:17;;;;;;;11.30;5.70;;;;;;;3.43;84.99;97004.91;5023623;28;20112;-61
2021/04/26 01:46:44;;;;;;;9.32;6.22;;;;;;;3.82;85.74;97100.53;5022787;28;20045;-63
2021/04/26 01:49:11;;;;;;;12.18;6.30;;;;;;;4.13;84.21;97139.47;5021731;28;20144;-62
2021/04/26 01:51:37;;;;;;;13.40;5.75;;;;;;;1.96;85.34;96785.06;5022562;28;20634;-62
2021/04/26 01:54:03;;;;;;;12.18;5.57;;;;;;;4.05;85.07;97126.59;5021164;28;20061;-62
2021/04/26 01:56:34;;;;;;;11.50;5.32;;;;;;;4.04;84.54;97130.47;5022730;28;20495;-61
2021/04/26 01:59:01;;;;;;;9.45;5.47;;;;;;;3.84;85.62;97120.16;5021659;28;20040;-62
2021/04/26 02:01:28;;;;;;;22.15;9.50;;;;;;;3.84;86.80;97125.66;5021447;28;20034;-62
2021/04/26 02:03:56;;;;;;;14.30;6.82;;;;;;;3.85;85.78;97116.31;5023867;28;20452;-61
2021/04/26 02:06:22;;;;;;;13.18;6.60;;;;;;;3.79;85.92;97127.78;5021097;28;20029;-62
2021/04/26 02:08:48;;;;;;;11.68;5.90;;;;;;;3.82;85.31;97138.91;5022823;28;20049;-62
2021/04/26 02:11:14;;;;;;;10.50;6.13;;;;;;;3.53;84.46;97081.25;5022698;28;20048;-62
2021/04/26 02:13:42;;;;;;;15.13;7.88;;;;;;;3.83;84.21;97129.53;5036987;28;20045;-63
2021/04/26 02:16:07;;;;;;;15.93;10.05;;;;;;;3.79;84.03;97131.31;5037405;28;20034;-62
2021/04/26 02:18:33;;;;;;;20.63;10.57;;;;;;;3.79;83.75;97139.53;5023283;28;20033;-62
2021/04/26 02:20:59;;;;;;;18.80;9.90;;;;;;;3.35;83.69;97063.22;5023962;28;20041;-62
2021/04/26 02:23:26;;;;;;;21.52;9.13;;;;;;;3.65;84.07;97116.19;5026611;28;20041;-63
2021/04/26 02:25:51;;;;;;;17.30;9.75;;;;;;;3.55;83.59;97086.41;5025804;28;20041;-62
2021/04/26 02:28:17;;;;;;;17.77;8.40;;;;;;;3.86;83.71;97142.56;5026798;28;20044;-62
2021/04/26 02:30:43;;;;;;;16.95;9.43;;;;;;;3.88;84.53;97132.09;5026127;28;20041;-61
2021/04/26 02:33:17;;;;;;;22.35;10.30;;;;;;;3.88;85.33;97181.44;5025851;28;20463;-63
2021/04/26 02:35:49;;;;;;;25.80;11.88;;;;;;;3.90;85.52;97132.59;5025656;28;20532;-63
2021/04/26 02:38:47;;;;;;;34.37;17.90;;;;;;;3.86;84.57;97112.44;5026269;28;20044;-62
2021/04/26 02:41:15;;;;;;;28.33;14.25;;;;;;;4.03;84.33;97134.31;5025857;28;20072;-62
2021/04/26 02:43:46;;;;;;;21.52;10.25;;;;;;;3.88;84.97;97123.88;5026298;28;20033;-62
2021/04/26 02:46:14;;;;;;;19.95;8.25;;;;;;;3.82;84.80;97144.38;5025466;28;20068;-62
2021/04/26 02:48:43;;;;;;;17.55;8.05;;;;;;;3.87;84.48;97125.00;5026429;28;20037;-62
2021/04/26 02:51:08;;;;;;;20.42;9.00;;;;;;;3.95;84.82;97126.13;5040327;28;20132;-63
2021/04/26 02:53:35;;;;;;;18.95;8.25;;;;;;;3.88;84.72;97115.66;5041217;28;20235;-63
2021/04/26 02:56:07;;;;;;;16.75;7.65;;;;;;;3.77;85.49;97125.34;5040983;28;20037;-62
2021/04/26 02:58:35;;;;;;;13.50;7.80;;;;;;;2.98;85.17;96979.88;5024327;28;20083;-62
2021/04/26 03:01:05;;;;;;;13.18;6.80;;;;;;;3.36;85.92;97048.41;5040127;28;20062;-63
2021/04/26 03:03:32;;;;;;;12.88;6.38;;;;;;;3.74;86.18;97120.53;5040906;28;20500;-61
2021/04/26 03:05:59;;;;;;;16.50;7.50;;;;;;;3.80;86.13;97111.00;5025397;28;20037;-61
2021/04/26 03:08:25;;;;;;;14.23;7.45;;;;;;;3.86;85.85;97115.19;5024345;28;20132;-63
2021/04/26 03:10:51;;;;;;;14.80;6.82;;;;;;;3.02;85.97;96999.16;5040794;28;20567;-65
2021/04/26 03:13:17;;;;;;;11.05;6.65;;;;;;;3.78;85.88;97126.97;5025718;28;20116;-62
2021/04/26 03:15:43;;;;;;;13.40;6.38;;;;;;;2.66;85.55;96946.75;5025699;28;20037;-62
2021/04/26 03:18:13;;;;;;;10.70;6.70;;;;;;;3.14;85.13;97054.06;5023712;28;20397;-64
2021/04/26 03:20:38;;;;;;;17.50;7.25;;;;;;;3.61;83.89;97118.78;5023043;28;20080;-61
2021/04/26 03:23:05;;;;;;;12.70;6.18;;;;;;;3.57;84.97;97161.63;5025428;28;20072;-61
2021/04/26 03:25:31;;;;;;;10.80;6.07;;;;;;;3.46;85.88;97130.22;5024820;28;20121;-61
2021/04/26 03:27:58;;;;;;;12.30;6.57;;;;;;;2.88;86.49;97032.16;5023551;28;20152;-61
2021/04/26 03:30:25;;;;;;;10.95;6.32;;;;;;;3.08;85.78;97063.56;5022688;28;20590;-61
2021/04/26 03:32:51;;;;;;;11.80;7.00;;;;;;;3.51;85.76;97134.72;5025288;28;20047;-62
2021/04/26 03:35:18;;;;;;;9.93;7.18;;;;;;;3.61;86.03;97132.47;5024804;28;20596;-61
2021/04/26 03:37:52;;;;;;;17.48;8.50;;;;;;;3.70;85.72;97133.25;5025161;28;20104;-61
2021/04/26 03:40:24;;;;;;;16.85;8.95;;;;;;;3.71;84.13;97114.88;5023408;28;20033;-62
2021/04/26 03:42:55;;;;;;;14.50;8.27;;;;;;;3.84;84.06;97142.09;5023045;28;20060;-61
2021/04/26 03:45:22;;;;;;;18.15;7.85;;;;;;;3.60;83.92;97108.97;5022997;28;20040;-61
2021/04/26 03:47:48;;;;;;;15.05;7.45;;;;;;;3.93;83.65;97145.66;5024729;28;20048;-62
2021/04/26 03:50:14;;;;;;;12.40;7.47;;;;;;;3.93;83.24;97140.16;5022686;28;20065;-61
2021/04/26 03:52:41;;;;;;;13.43;7.97;;;;;;;3.40;83.16;97046.63;5025088;28;20029;-62
2021/04/26 03:55:08;;;;;;;15.73;7.63;;;;;;;3.75;83.57;97078.31;5024359;28;20040;-61
2021/04/26 03:57:34;;;;;;;18.27;7.80;;;;;;;4.14;83.78;97154.75;5024679;28;20408;-61
2021/04/26 03:59:59;;;;;;;16.02;6.45;;;;;;;4.24;82.22;97150.88;5024441;28;20034;-61
2021/04/26 04:02:29;;;;;;;11.40;5.97;;;;;;;4.24;82.51;97146.19;5023989;28;20065;-62
2021/04/26 04:04:55;;;;;;;18.98;7.60;;;;;;;4.32;82.42;97152.78;5024716;28;20033;-61
2021/04/26 04:07:22;;;;;;;19.90;9.40;;;;;;;3.59;82.98;97025.16;5024064;28;20386;-61
2021/04/26 04:09:47;;;;;;;25.02;10.80;;;;;;;3.45;81.34;96986.22;5024667;28;20042;-63
2021/04/26 04:12:13;;;;;;;19.88;11.02;;;;;;;4.68;81.32;97160.56;5023877;28;20060;-62
2021/04/26 04:14:38;;;;;;;25.63;12.60;;;;;;;4.84;80.08;97164.38;5025462;28;20042;-61
2021/04/26 04:17:04;;;;;;;19.00;10.68;;;;;;;4.94;79.91;97163.97;5024098;28;20039;-61
2021/04/26 04:19:29;;;;;;;29.52;14.23;;;;;;;4.99;80.18;97166.53;5024692;28;20116;-62
2021/04/26 04:21:55;;;;;;;20.67;11.88;;;;;;;5.12;79.56;97174.53;5023794;28;20476;-61
2021/04/26 04:24:20;;;;;;;18.20;9.50;;;;;;;4.34;79.17;97047.16;5024178;28;20037;-61
2021/04/26 04:26:46;;;;;;;23.77;12.90;;;;;;;5.27;78.22;97179.47;5023474;28;20029;-61
2021/04/26 04:29:11;;;;;;;12.38;8.85;;;;;;;5.24;78.62;97149.09;5024412;28;20481;-62
2021/04/26 04:31:37;;;;;;;15.30;10.48;;;;;;;4.45;78.40;97023.69;5023983;28;20717;-61
2021/04/26 04:34:02;;;;;;;12.98;8.00;;;;;;;4.34;77.99;97008.78;5023761;28;20497;-62
2021/04/26 04:36:28;;;;;;;15.98;7.75;;;;;;;5.34;77.59;97132.25;5021544;28;20523;-62
2021/04/26 04:38:53;;;;;;;17.88;9.65;;;;;;;5.70;77.57;97159.91;5022255;28;20484;-62
2021/04/26 04:41:19;;;;;;;24.65;10.70;;;;;;;5.84;76.77;97165.97;5023289;28;20040;-62
2021/04/26 04:43:44;;;;;;;41.15;15.07;;;;;;;5.51;75.58;97079.91;5021943;28;20037;-62
2021/04/26 04:46:09;;;;;;;66.82;18.45;;;;;;;5.84;75.71;97083.50;5023563;28;20120;-61
2021/04/26 04:48:35;;;;;;;35.85;13.48;;;;;;;6.30;74.74;97127.16;5024583;28;20041;-61
2021/04/26 04:51:00;;;;;;;35.15;14.63;;;;;;;6.54;73.61;97140.16;5023245;28;20060;-61
2021/04/26 04:53:26;;;;;;;25.77;9.65;;;;;;;6.70;72.37;97144.63;5023833;28;20029;-64
2021/04/26 04:55:52;;;;;;;19.98;10.38;;;;;;;6.82;71.30;97147.41;5038244;28;20080;-61
2021/04/26 04:58:17;;;;;;;20.95;10.48;;;;;;;6.93;71.80;97145.00;5023952;28;20052;-62
2021/04/26 05:00:43;;;;;;;29.35;14.52;;;;;;;6.76;70.64;97079.16;5023151;28;20421;-62
2021/04/26 05:03:08;;;;;;;42.67;20.40;;;;;;;7.04;70.00;97149.72;5020944;28;20038;-63
2021/04/26 05:05:33;;;;;;;33.85;17.15;;;;;;;5.55;68.99;96850.06;5021246;28;20067;-64
2021/04/26 05:08:00;;;;;;;40.35;17.95;;;;;;;7.60;69.15;97156.97;5021949;28;20037;-62
2021/04/26 05:10:25;;;;;;;27.08;14.23;;;;;;;7.60;69.19;97147.91;5021096;28;20099;-62
2021/04/26 05:12:50;;;;;;;22.77;12.80;;;;;;;7.77;67.41;97138.53;5029221;28;20034;-61
2021/04/26 05:15:16;;;;;;;21.70;13.02;;;;;;;8.06;67.98;97140.97;5022579;28;20037;-63
2021/04/26 05:17:41;;;;;;;26.90;13.75;;;;;;;7.78;65.66;97079.50;5022623;28;20167;-62
2021/04/26 05:20:07;;;;;;;29.00;15.90;;;;;;;7.68;66.12;97086.31;5023221;28;20095;-61
2021/04/26 05:22:35;;;;;;;30.58;16.15;;;;;;;8.14;65.24;97093.13;5023551;28;20112;-61
2021/04/26 05:25:06;;;;;;;27.27;15.20;;;;;;;8.56;64.57;97114.38;5023003;28;20048;-61
2021/04/26 05:27:32;;;;;;;26.35;14.32;;;;;;;8.85;63.25;97146.28;5023625;28;20056;-62
2021/04/26 05:29:57;;;;;;;26.20;14.68;;;;;;;9.03;62.81;97142.00;5023586;28;20201;-63
2021/04/26 05:32:24;;;;;;;25.63;14.05;;;;;;;8.37;63.17;97025.97;5019119;28;20037;-63
2021/04/26 05:34:50;;;;;;;23.98;12.98;;;;;;;8.52;62.69;97043.69;5022858;28;20041;-63
2021/04/26 05:37:15;;;;;;;24.38;13.48;;;;;;;9.45;64.23;97151.31;5022143;28;20029;-62
2021/04/26 05:39:41;;;;;;;21.67;13.05;;;;;;;8.73;67.54;97088.38;5021283;28;20424;-60
2021/04/26 05:42:07;;;;;;;13.80;9.30;;;;;;;8.68;65.98;97003.03;5022452;28;20037;-64
2021/04/26 05:44:33;;;;;;;13.98;7.68;;;;;;;9.65;64.11;97119.75;5023211;28;20033;-60
2021/04/26 05:46:58;;;;;;;8.88;6.35;;;;;;;9.14;63.03;97021.47;5022829;28;20465;-62
2021/04/26 05:49:24;;;;;;;15.27;7.05;;;;;;;8.59;64.28;96974.81;5021157;28;20053;-60
2021/04/26 05:51:49;;;;;;;13.73;5.97;;;;;;;8.49;64.19;96945.00;5022150;28;20053;-62
2021/04/26 05:54:15;;;;;;;7.95;6.15;;;;;;;9.66;63.65;97110.28;5025707;28;20958;-60
2021/04/26 05:56:40;;;;;;;11.90;6.05;;;;;;;10.19;63.36;97156.50;5026517;28;20029;-60
2021/04/26 05:59:05;;;;;;;9.55;5.75;;;;;;;9.91;64.33;97133.72;5027266;28;20401;-64
2021/04/26 06:01:31;;;;;;;11.05;6.70;;;;;;;9.98;64.49;97122.00;5026157;28;20529;-64
2021/04/26 06:03:56;;;;;;;9.85;6.10;;;;;;;9.51;64.77;97042.03;5027117;28;20397;-63
2021/04/26 06:06:22;;;;;;;12.82;6.45;;;;;;;8.11;62.90;96782.09;5025725;28;20402;-73
2021/04/26 06:08:47;;;;;;;12.35;7.07;;;;;;;8.51;62.27;96804.66;5024926;28;20041;-68
2021/04/26 06:11:12;;;;;;;19.60;7.53;;;;;;;10.94;61.76;97137.28;5026135;28;20366;-69
2021/04/26 06:13:38;;;;;;;17.38;7.40;;;;;;;11.31;60.71;97135.53;5026123;28;20077;-66
2021/04/26 06:16:04;;;;;;;14.40;6.90;;;;;;;11.07;60.00;97129.59;5025500;28;20033;-67
2021/04/26 06:18:30;;;;;;;18.27;7.78;;;;;;;10.35;58.30;96938.47;5026700;28;20052;-63
2021/04/26 06:20:55;;;;;;;9.00;6.70;;;;;;;10.81;58.81;96989.06;5026185;28;20040;-62
2021/04/26 06:23:22;;;;;;;10.00;6.80;;;;;;;11.87;58.15;97135.59;5026762;28;20045;-63
2021/04/26 06:25:48;;;;;;;12.50;6.93;;;;;;;11.51;57.65;97044.69;5025614;28;20048;-64
2021/04/26 06:28:15;;;;;;;10.00;6.95;;;;;;;11.41;57.55;97012.06;5026486;28;20049;-65
2021/04/26 06:30:42;;;;;;;11.88;6.68;;;;;;;12.34;57.40;97137.75;5025934;28;20040;-65
2021/04/26 06:33:15;;;;;;;10.38;6.88;;;;;;;12.60;56.46;97130.09;5024988;28;20164;-64
2021/04/26 06:35:51;;;;;;;10.55;6.25;;;;;;;12.71;54.83;97092.09;5024241;28;20083;-66
2021/04/26 06:38:18;;;;;;;10.02;5.78;;;;;;;13.01;53.62;97095.59;5025859;28;20041;-62
2021/04/26 06:40:43;;;;;;;9.57;5.50;;;;;;;11.87;52.13;96916.34;5024244;28;20033;-67
2021/04/26 06:43:10;;;;;;;8.15;4.95;;;;;;;13.18;51.70;97131.06;5025826;28;20099;-67
2021/04/26 06:45:36;;;;;;;6.38;4.90;;;;;;;13.02;50.96;97065.81;5025836;28;20032;-67
2021/04/26 06:48:02;;;;;;;11.55;5.47;;;;;;;13.24;51.26;97092.59;5026032;28;20419;-68
2021/04/26 06:50:27;;;;;;;7.70;4.97;;;;;;;13.60;50.64;97117.50;5025357;28;20531;-67
2021/04/26 06:52:55;;;;;;;8.45;5.03;;;;;;;13.78;50.14;97134.31;5025899;28;20492;-66
2021/04/26 06:55:21;;;;;;;8.18;5.30;;;;;;;13.89;50.06;97112.88;5025890;28;20064;-65
2021/04/26 06:57:47;;;;;;;11.43;5.82;;;;;;;13.99;50.00;97117.69;5025515;28;20072;-66
2021/04/26 07:00:13;;;;;;;10.02;5.40;;;;;;;13.61;49.76;97080.09;5023624;28;20156;-68
2021/04/26 07:02:39;;;;;;;6.20;4.32;;;;;;;14.02;49.34;97114.13;5025358;28;20041;-67
2021/04/26 07:05:07;;;;;;;8.10;4.82;;;;;;;14.24;48.95;97118.63;5022613;28;20037;-62
2021/04/26 07:07:33;;;;;;;6.32;4.90;;;;;;;14.34;49.52;97128.22;5025526;28;20037;-63
2021/04/26 07:09:59;;;;;;;8.65;5.55;;;;;;;12.75;49.11;96898.38;5025377;28;20040;-65
2021/04/26 07:12:25;;;;;;;8.25;5.40;;;;;;;14.36;49.34;97139.78;5023439;28;20563;-67
2021/04/26 07:14:50;;;;;;;7.10;5.43;;;;;;;12.41;48.70;96738.63;5016027;28;20037;-66
2021/04/26 07:17:16;;;;;;;11.63;5.70;;;;;;;14.99;48.31;97115.63;5023586;28;20420;-65
2021/04/26 07:19:41;;;;;;;6.63;5.43;;;;;;;14.88;48.43;97119.59;5024159;28;20025;-67
2021/04/26 07:22:07;;;;;;;8.48;6.38;;;;;;;14.85;48.96;97109.25;5022963;28;20492;-67
2021/04/26 07:24:32;;;;;;;13.07;5.63;;;;;;;14.92;48.40;97086.94;5025246;28;20064;-67
2021/04/26 07:26:58;;;;;;;7.43;5.32;;;;;;;15.27;47.92;97103.66;5024639;28;20048;-70
2021/04/26 07:29:24;;;;;;;6.72;5.07;;;;;;;14.42;47.09;96973.78;5024955;28;20041;-64
2021/04/26 07:31:49;;;;;;;7.78;5.20;;;;;;;15.12;47.18;97049.88;5024771;28;20033;-69
2021/04/26 07:34:15;;;;;;;8.38;5.18;;;;;;;15.09;46.96;97035.94;5024444;28;20064;-65
2021/04/26 07:36:40;;;;;;;8.63;5.70;;;;;;;15.25;47.36;97033.53;5023396;28;20068;-66
2021/04/26 07:39:07;;;;;;;8.82;5.88;;;;;;;14.78;47.64;97009.63;5023027;28;20037;-64
2021/04/26 07:41:33;;;;;;;7.55;4.93;;;;;;;15.46;47.24;97083.75;5023868;28;20038;-68
2021/04/26 07:43:59;;;;;;;6.80;5.55;;;;;;;15.48;46.88;97017.16;5024846;28;20044;-62
2021/04/26 07:46:25;;;;;;;6.70;5.22;;;;;;;14.90;46.53;96877.34;5024241;28;20021;-66
2021/04/26 07:48:53;;;;;;;10.80;5.28;;;;;;;15.54;45.86;96923.41;5024223;28;20038;-67
2021/04/26 07:51:18;;;;;;;6.85;5.53;;;;;;;16.56;45.11;97069.03;5022183;28;20053;-64
2021/04/26 07:53:44;;;;;;;10.23;5.47;;;;;;;16.64;44.28;97070.53;5024397;28;20049;-64
2021/04/26 07:56:09;;;;;;;10.57;6.05;;;;;;;16.18;44.47;96972.16;5023859;28;20485;-65
2021/04/26 07:58:35;;;;;;;7.68;5.72;;;;;;;16.45;44.46;96970.38;5025493;28;20045;-66
2021/04/26 08:01:01;;;;;;;11.95;5.68;;;;;;;17.26;43.58;97066.91;5024152;28;20488;-64
2021/04/26 08:03:27;;;;;;;8.68;5.65;;;;;;;16.42;43.56;96940.44;5024554;28;20080;-65
2021/04/26 08:05:53;;;;;;;10.00;5.65;;;;;;;17.39;42.69;97049.16;5023777;28;20033;-64
2021/04/26 08:08:19;;;;;;;5.80;4.93;;;;;;;17.23;42.97;97022.94;5024071;28;20469;-67
2021/04/26 08:10:44;;;;;;;9.27;4.82;;;;;;;17.56;41.79;97067.06;5023511;28;20087;-65
2021/04/26 08:13:10;;;;;;;8.27;5.25;;;;;;;16.05;40.52;96803.38;5024086;28;20045;-66
2021/04/26 08:15:35;;;;;;;7.00;5.50;;;;;;;17.10;40.33;96974.25;5023655;28;20104;-69
2021/04/26 08:18:01;;;;;;;9.15;5.43;;;;;;;17.74;39.05;97081.66;5023629;28;20114;-64
2021/04/26 08:20:27;;;;;;;7.20;6.03;;;;;;;16.81;39.19;96912.19;5023941;28;20041;-63
2021/04/26 08:22:53;;;;;;;5.93;4.82;;;;;;;18.04;37.82;97067.72;5022421;28;20081;-62
2021/04/26 08:25:18;;;;;;;6.25;5.18;;;;;;;18.27;40.17;97087.47;5023318;28;20047;-67
2021/04/26 08:27:45;;;;;;;7.40;5.38;;;;;;;18.11;40.44;97056.44;5022152;28;20068;-68
2021/04/26 08:30:10;;;;;;;6.38;5.63;;;;;;;17.92;40.84;97009.41;5021698;28;20121;-64
2021/04/26 08:32:36;;;;;;;9.80;5.32;;;;;;;16.94;40.76;96887.25;5021993;28;20128;-63
2021/04/26 08:35:03;;;;;;;6.18;5.57;;;;;;;18.05;39.64;97030.06;5023728;28;20091;-69
2021/04/26 08:37:29;;;;;;;9.57;5.38;;;;;;;18.13;39.82;97026.75;5023234;28;20033;-63
2021/04/26 08:39:56;;;;;;;8.07;5.28;;;;;;;18.27;38.51;97022.16;5023449;28;20111;-68
2021/04/26 08:42:21;;;;;;;7.70;6.30;;;;;;;17.84;39.62;97058.34;5023491;28;20129;-64
2021/04/26 08:44:47;;;;;;;6.38;5.57;;;;;;;17.97;39.38;97070.63;5023640;28;20112;-67
2021/04/26 08:47:14;;;;;;;7.25;5.18;;;;;;;17.25;39.28;96911.31;5023189;28;20091;-69
2021/04/26 08:49:40;;;;;;;9.00;6.28;;;;;;;17.05;37.91;96845.97;5023518;28;20136;-70
2021/04/26 08:52:07;;;;;;;7.05;5.50;;;;;;;17.19;38.09;96921.38;5023146;28;20025;-68
2021/04/26 08:54:33;;;;;;;8.23;5.38;;;;;;;17.73;38.93;96946.38;5021624;28;20045;-66
2021/04/26 08:56:59;;;;;;;6.32;5.50;;;;;;;17.66;38.02;96873.63;5023102;28;20029;-66
2021/04/26 08:59:24;;;;;;;9.75;6.13;;;;;;;19.11;38.01;97032.16;5004645;28;20511;-63
2021/04/26 09:02:07;;;;;;;8.95;5.38;;;;;;;19.46;37.56;97060.47;5003169;28;20049;-65
2021/04/26 09:04:37;;;;;;;6.60;5.53;;;;;;;18.34;38.73;96952.75;5003427;28;20040;-69
2021/04/26 09:07:08;;;;;;;6.43;5.30;;;;;;;19.00;38.93;97023.13;5002586;28;20355;-69
2021/04/26 09:09:36;;;;;;;7.53;5.53;;;;;;;18.87;36.72;96986.44;5003650;28;20086;-70
2021/04/26 09:12:04;;;;;;;7.95;5.28;;;;;;;19.09;35.74;96964.38;5002813;28;20515;-68
2021/04/26 09:14:42;;;;;;;8.88;5.47;;;;;;;19.17;35.93;97022.03;5036617;28;20044;-68
2021/04/26 09:17:33;;;;;;;10.95;5.90;;;;;;;19.15;35.48;96974.72;5022165;28;20467;-69
2021/04/26 09:20:02;;;;;;;7.53;5.30;;;;;;;19.26;34.66;96947.22;5021400;28;20108;-70
2021/04/26 09:22:45;;;;;;;6.57;4.95;;;;;;;18.29;32.16;96832.63;5022969;28;20128;-69
2021/04/26 09:25:23;;;;;;;6.20;5.60;;;;;;;18.88;31.18;96999.25;5022861;28;20108;-69
2021/04/26 09:28:11;;;;;;;7.28;5.80;;;;;;;19.17;32.73;97000.31;5023174;28;20099;-69
2021/04/26 09:30:55;;;;;;;13.35;8.65;;;;;;;17.22;30.71;96657.41;5026734;28;20068;-69
2021/04/26 09:33:30;;;;;;;8.80;5.93;;;;;;;19.10;29.99;96895.75;5027021;28;20416;-61
2021/04/26 09:36:00;;;;;;;8.13;6.22;;;;;;;19.88;28.53;96982.19;5026389;28;20033;-68
2021/04/26 09:38:39;;;;;;;6.88;5.28;;;;;;;20.22;27.74;96985.50;5027029;28;20037;-69
2021/04/26 09:41:09;;;;;;;7.28;4.97;;;;;;;20.43;27.29;96985.03;5026065;28;20033;-68
2021/04/26 09:43:35;;;;;;;8.32;5.50;;;;;;;20.09;27.03;96981.75;5027051;28;20111;-68
2021/04/26 09:46:00;;;;;;;7.53;5.07;;;;;;;19.90;27.65;96985.34;5026312;28;20064;-67
2021/04/26 09:48:28;;;;;;;5.88;5.10;;;;;;;20.20;26.96;96959.84;5026778;28;20131;-67
2021/04/26 09:50:57;;;;;;;6.55;5.47;;;;;;;19.94;26.05;96870.78;5024596;28;20057;-67
2021/04/26 09:53:28;;;;;;;7.78;5.13;;;;;;;20.72;26.46;96952.19;5024835;28;20051;-69
2021/04/26 09:55:56;;;;;;;7.20;5.40;;;;;;;21.41;26.89;96988.28;5025963;28;20393;-69
2021/04/26 09:58:23;;;;;;;7.35;5.50;;;;;;;21.55;25.67;96965.34;5026096;28;20037;-67
2021/04/26 10:00:48;;;;;;;5.95;5.40;;;;;;;21.57;26.44;96979.78;5025972;28;20029;-68
2021/04/26 10:03:16;;;;;;;8.18;6.13;;;;;;;21.71;25.86;96979.41;5026538;28;20461;-73
2021/04/26 10:05:46;;;;;;;7.78;5.72;;;;;;;21.90;26.24;96978.47;5026109;28;20128;-71
2021/04/26 10:08:16;;;;;;;7.72;6.18;;;;;;;21.89;25.97;96950.72;5026213;28;20045;-70
2021/04/26 10:10:43;;;;;;;6.25;5.32;;;;;;;21.35;25.26;96849.13;5026088;28;20408;-71
2021/04/26 10:13:09;;;;;;;5.60;5.10;;;;;;;21.48;24.75;96900.69;5025999;28;20129;-70
2021/04/26 10:15:35;;;;;;;6.88;5.55;;;;;;;22.07;25.46;96957.44;5025700;28;20033;-67
2021/04/26 10:18:08;;;;;;;8.68;5.43;;;;;;;21.51;24.90;96905.47;5024778;28;20056;-67
2021/04/26 10:20:40;;;;;;;5.90;5.30;;;;;;;22.45;24.94;96982.88;5032076;28;20716;-67
2021/04/26 10:23:43;;;;;;;6.20;5.55;;;;;;;22.28;25.12;96972.94;5018644;28;20045;-67
2021/04/26 10:26:28;;;;;;;6.35;5.80;;;;;;;22.07;25.48;96917.94;5016878;28;20053;-74
2021/04/26 10:29:07;;;;;;;7.05;6.22;;;;;;;21.77;25.74;96921.25;5013830;28;20493;-64
2021/04/26 10:31:59;;;;;;;6.32;5.70;;;;;;;21.53;25.79;96967.03;5015925;28;20235;-64
2021/04/26 10:34:26;;;;;;;7.18;5.93;;;;;;;21.46;26.24;96917.28;5018868;28;20045;-68
2021/04/26 10:36:56;;;;;;;6.35;5.80;;;;;;;21.88;25.30;96935.81;5030141;28;20353;-65
2021/04/26 10:39:23;;;;;;;6.40;5.40;;;;;;;21.49;24.83;96812.09;5020754;28;20527;-66
2021/04/26 10:41:58;;;;;;;6.88;5.50;;;;;;;22.82;24.77;96967.25;5017762;28;20424;-65
2021/04/26 10:44:39;;;;;;;6.93;5.75;;;;;;;23.07;24.73;96967.22;5012845;28;20077;-65
2021/04/26 10:47:17;;;;;;;6.05;5.43;;;;;;;23.36;24.32;97007.47;5033516;28;20444;-64
2021/04/26 10:49:47;;;;;;;6.32;5.78;;;;;;;23.30;23.58;96933.72;5019081;28;20057;-66
2021/04/26 10:52:33;;;;;;;5.90;5.38;;;;;;;23.36;24.34;96953.75;5011067;28;20038;-68
2021/04/26 10:55:22;;;;;;;6.40;5.88;;;;;;;22.49;25.45;96995.66;5015554;28;20029;-63
2021/04/26 10:57:51;;;;;;;5.95;5.40;;;;;;;22.17;26.24;96938.59;5015802;28;20488;-64
2021/04/26 11:03:11;;;;;;;7.72;4.95;;;;;;;22.78;26.64;96943.97;5018279;28;20041;-65
2021/04/26 11:05:39;;;;;;;6.32;5.72;;;;;;;22.88;27.20;96990.84;5031740;28;20788;-66
2021/04/26 11:08:25;;;;;;;7.65;5.90;;;;;;;22.43;28.43;96887.34;5011612;28;20050;-64
2021/04/26 11:10:57;;;;;;;8.07;6.13;;;;;;;22.43;27.80;96924.06;5010069;28;20115;-64
2021/04/26 11:13:34;;;;;;;7.60;5.20;;;;;;;22.62;27.89;96935.63;5017193;28;20048;-61
2021/04/26 11:16:12;;;;;;;7.90;5.60;;;;;;;22.54;28.00;96928.63;5016092;28;20029;-63
2021/04/26 11:18:40;;;;;;;7.88;5.97;;;;;;;21.97;27.77;96811.81;5019072;28;20052;-68
2021/04/26 11:21:07;;;;;;;8.45;5.50;;;;;;;21.45;28.10;96757.84;5023610;28;20130;-68
2021/04/26 11:23:44;;;;;;;6.55;5.70;;;;;;;22.32;26.26;96934.88;5040436;28;20041;-73
2021/04/26 11:26:21;;;;;;;6.03;5.18;;;;;;;22.15;27.07;96924.94;5023704;28;20034;-67
2021/04/26 11:29:02;;;;;;;6.03;5.47;;;;;;;22.56;26.33;96920.50;5036706;28;20033;-68
2021/04/26 11:31:43;;;;;;;7.13;5.35;;;;;;;22.50;26.88;96914.56;5024476;28;20037;-67
2021/04/26 11:34:16;;;;;;;5.60;5.10;;;;;;;22.26;26.69;96885.09;5024275;28;20049;-69
2021/04/26 11:37:00;;;;;;;10.20;5.45;;;;;;;22.62;26.31;96922.28;5012736;28;20037;-69
2021/04/26 11:39:32;;;;;;;7.82;5.45;;;;;;;22.31;26.45;96876.88;5024424;28;20037;-68
2021/04/26 11:41:58;;;;;;;9.07;5.22;;;;;;;21.83;26.05;96767.16;5024203;28;20038;-72